Time;durP1;ratioP1;P1;durP2;ratioP2;P2;SDS_P1;SDS_P2;PMS_P1;PMS_P2;Temp;Humidity;BMP_temperature;BMP_pressure;BME280_temperature;BME280_humidity;BME280_pressure;Samples;Min_cycle;Max_cycle;Signal;HPM_P1;HPM_P2
2023/06/17 00:01:06;;;;;;;7.65;4.88;;;;;;;14.28;71.22;97228.88;4995598;28;20045;-67
2023/06/17 00:03:32;;;;;;;8.27;4.90;;;;;;;14.34;70.95;97225.00;4988527;28;20165;-67
2023/06/17 00:05:59;;;;;;;7.53;4.65;;;;;;;14.36;70.91;97231.00;4985897;28;20070;-66
2023/06/17 00:08:26;;;;;;;7.65;4.95;;;;;;;14.20;71.74;97227.56;4986045;28;20042;-67
2023/06/17 00:10:52;;;;;;;8.90;4.90;;;;;;;14.11;71.94;97226.50;4985279;28;20425;-67
2023/06/17 00:13:19;;;;;;;6.50;4.85;;;;;;;14.16;71.88;97221.03;4984905;28;20114;-66
2023/06/17 00:15:50;;;;;;;7.68;5.10;;;;;;;14.18;71.46;97219.66;4968760;28;20042;-67
2023/06/17 00:18:19;;;;;;;8.50;4.88;;;;;;;14.23;71.18;97218.00;4980875;28;20122;-67
2023/06/17 00:20:47;;;;;;;7.03;4.63;;;;;;;14.32;70.73;97213.59;4991072;28;20144;-67
2023/06/17 00:23:13;;;;;;;7.97;4.82;;;;;;;14.29;70.73;97208.69;4993552;28;20501;-67
2023/06/17 00:25:40;;;;;;;7.57;4.53;;;;;;;14.28;70.62;97209.81;4991094;28;20417;-66
2023/06/17 00:28:06;;;;;;;7.47;5.05;;;;;;;14.10;71.74;97206.63;4990332;28;20565;-66
2023/06/17 00:30:33;;;;;;;6.85;4.32;;;;;;;14.05;71.89;97215.63;4989677;28;20041;-68
2023/06/17 00:32:59;;;;;;;7.68;4.90;;;;;;;13.95;72.47;97202.06;4995003;28;20034;-66
2023/06/17 00:35:26;;;;;;;8.02;4.78;;;;;;;13.98;72.10;97208.84;4993032;28;20073;-67
2023/06/17 00:37:53;;;;;;;8.45;5.00;;;;;;;14.14;71.63;97206.88;4967889;28;20046;-67
2023/06/17 00:40:19;;;;;;;11.20;4.90;;;;;;;14.20;71.06;97205.78;4976128;28;20038;-67
2023/06/17 00:42:46;;;;;;;9.70;5.00;;;;;;;14.33;70.26;97208.97;4993250;28;20508;-67
2023/06/17 00:45:13;;;;;;;7.78;4.57;;;;;;;14.31;70.22;97204.59;4976028;28;19926;-67
2023/06/17 00:47:40;;;;;;;7.18;5.00;;;;;;;14.25;70.48;97203.00;4985676;28;21505;-66
2023/06/17 00:50:09;;;;;;;8.57;5.75;;;;;;;13.91;72.15;97201.81;4985899;28;20048;-67
2023/06/17 00:52:36;;;;;;;7.63;5.03;;;;;;;13.86;72.59;97196.38;4992229;28;20466;-66
2023/06/17 00:55:10;;;;;;;10.10;5.57;;;;;;;13.85;72.75;97193.91;4995279;28;20311;-67
2023/06/17 00:57:38;;;;;;;8.40;4.90;;;;;;;13.65;73.74;97206.50;4970798;28;20589;-67
2023/06/17 01:00:09;;;;;;;9.07;5.32;;;;;;;13.41;75.03;97204.34;4973937;28;20051;-67
2023/06/17 01:02:40;;;;;;;;;;;;;;;13.35;75.26;97200.81;4991486;28;20042;-67
2023/06/17 01:05:11;;;;;;;7.60;4.88;;;;;;;13.29;76.03;97199.19;4992074;28;19932;-67
2023/06/17 01:07:50;;;;;;;9.23;4.90;;;;;;;13.48;74.57;97202.19;4990132;28;20117;-67
2023/06/17 01:10:24;;;;;;;6.97;5.30;;;;;;;13.58;74.08;97198.63;4973664;28;20530;-67
2023/06/17 01:12:54;;;;;;;10.52;5.50;;;;;;;13.48;74.43;97195.94;4970602;28;20125;-67
2023/06/17 01:15:21;;;;;;;7.55;5.63;;;;;;;13.42;74.63;97195.13;4970091;28;20417;-67
2023/06/17 01:17:54;;;;;;;8.00;5.47;;;;;;;13.42;74.73;97194.28;4972646;28;20573;-67
2023/06/17 01:20:22;;;;;;;7.35;5.07;;;;;;;13.36;75.01;97194.31;4983972;28;20069;-67
2023/06/17 01:22:54;;;;;;;8.60;5.35;;;;;;;13.31;75.15;97194.31;4995832;28;20128;-67
2023/06/17 01:25:29;;;;;;;7.15;5.13;;;;;;;13.27;75.43;97199.47;4966624;28;20133;-67
2023/06/17 01:28:00;;;;;;;9.60;5.20;;;;;;;13.21;75.98;97197.03;4974839;28;20038;-66
2023/06/17 01:30:28;;;;;;;7.90;5.18;;;;;;;13.31;75.17;97196.22;4977004;28;20633;-67
2023/06/17 01:32:57;;;;;;;10.32;5.18;;;;;;;13.30;75.25;97192.66;4987270;28;20030;-66
2023/06/17 01:35:31;;;;;;;8.00;4.53;;;;;;;13.34;74.70;97191.03;4989204;28;20161;-68
2023/06/17 01:38:06;;;;;;;7.78;5.07;;;;;;;13.30;75.09;97189.94;4992349;28;20030;-66
2023/06/17 01:40:34;;;;;;;9.18;5.32;;;;;;;13.40;74.58;97192.66;4990916;28;20077;-67
2023/06/17 01:43:04;;;;;;;8.48;5.20;;;;;;;13.35;74.67;97195.38;4970121;28;20048;-67
2023/06/17 01:45:32;;;;;;;10.05;5.32;;;;;;;13.30;74.69;97197.31;4970964;28;20100;-67
2023/06/17 01:47:58;;;;;;;9.52;5.35;;;;;;;13.34;74.94;97196.47;4970497;28;20074;-67
2023/06/17 01:50:25;;;;;;;6.90;4.80;;;;;;;13.33;74.90;97194.03;4988730;28;20421;-67
2023/06/17 01:52:51;;;;;;;;;;;;;;;13.28;74.91;97192.13;4988425;28;20053;-67
2023/06/17 01:55:18;;;;;;;;;;;;;;;13.12;75.76;97191.34;4983916;28;19938;-67
2023/06/17 01:57:44;;;;;;;;;;;;;;;12.97;76.56;97194.88;4971317;28;19922;-68
2023/06/17 02:00:13;;;;;;;;;;;;;;;12.92;77.01;97194.88;4983121;28;19926;-67
2023/06/17 02:02:50;;;;;;;;;;;;;;;12.87;77.42;97190.25;4994019;28;19925;-67
2023/06/17 02:05:18;;;;;;;;;;;;;;;12.96;76.80;97190.50;4971463;28;19937;-67
2023/06/17 02:07:45;;;;;;;;;;;;;;;12.93;76.58;97185.66;4973275;28;19928;-67
2023/06/17 02:10:12;;;;;;;;;;;;;;;13.01;76.32;97188.63;4970739;28;19929;-67
2023/06/17 02:12:38;;;;;;;;;;;;;;;13.07;75.97;97184.00;4990085;28;19930;-67
2023/06/17 02:15:05;;;;;;;;;;;;;;;13.16;75.30;97184.25;4992421;28;20020;-67
2023/06/17 02:17:32;;;;;;;;;;;;;;;13.33;74.64;97183.97;4993261;28;19957;-67
2023/06/17 02:19:58;;;;;;;;;;;;;;;13.47;73.47;97180.69;4972605;28;19921;-67
2023/06/17 02:22:25;;;;;;;;;;;;;;;13.63;73.13;97179.56;4992823;28;19922;-66
2023/06/17 02:24:52;;;;;;;;;;;;;;;13.57;72.93;97169.00;4992872;28;19980;-67
2023/06/17 02:27:18;;;;;;;;;;;;;;;13.56;72.85;97176.31;4971363;28;20066;-67
2023/06/17 02:29:45;;;;;;;;;;;;;;;13.50;73.07;97166.56;4988897;28;19921;-67
2023/06/17 02:32:12;;;;;;;;;;;;;;;13.43;73.53;97174.16;4970617;28;19958;-67
2023/06/17 02:34:38;;;;;;;8.95;5.15;;;;;;;13.35;73.69;97170.09;4989975;28;19928;-67
2023/06/17 02:37:07;;;;;;;8.18;5.63;;;;;;;13.12;74.90;97159.53;4972238;28;20093;-67
2023/06/17 02:39:34;;;;;;;7.63;5.38;;;;;;;13.19;74.54;97169.31;4970116;28;20096;-68
2023/06/17 02:42:01;;;;;;;;;;;;;;;13.24;74.31;97166.59;4985219;28;20057;-67
2023/06/17 02:44:28;;;;;;;7.63;5.20;;;;;;;13.21;74.39;97161.69;4972253;28;19972;-67
2023/06/17 02:46:54;;;;;;;8.30;5.07;;;;;;;13.21;74.55;97167.13;4986679;28;20259;-67
2023/06/17 02:49:21;;;;;;;8.35;5.00;;;;;;;13.16;74.66;97169.84;4972306;28;20050;-67
2023/06/17 02:51:47;;;;;;;6.63;5.00;;;;;;;13.08;75.23;97165.81;4988468;28;20349;-67
2023/06/17 02:54:14;;;;;;;6.78;4.53;;;;;;;13.19;74.36;97161.16;4971480;28;20074;-67
2023/06/17 02:56:40;;;;;;;9.85;5.55;;;;;;;13.22;74.55;97168.75;4987972;28;20588;-67
2023/06/17 02:59:08;;;;;;;8.10;4.90;;;;;;;13.11;74.65;97168.78;4986404;28;20038;-67
2023/06/17 03:01:40;;;;;;;7.38;5.40;;;;;;;13.13;74.79;97163.88;4971434;28;20089;-68
2023/06/17 03:04:06;;;;;;;7.45;5.13;;;;;;;13.15;74.80;97171.75;4972909;28;20466;-66
2023/06/17 03:06:34;;;;;;;10.07;5.40;;;;;;;13.15;74.38;97169.03;4970331;28;20386;-67
2023/06/17 03:09:03;;;;;;;7.75;5.22;;;;;;;13.06;74.79;97170.69;4970535;28;20034;-68
2023/06/17 03:11:31;;;;;;;8.75;4.95;;;;;;;13.05;74.87;97164.41;4968635;28;20047;-66
2023/06/17 03:14:01;;;;;;;8.35;5.07;;;;;;;13.14;74.40;97168.25;4967478;28;20128;-67
2023/06/17 03:16:34;;;;;;;6.93;4.80;;;;;;;13.08;74.68;97169.31;4967712;28;20046;-66
2023/06/17 03:19:02;;;;;;;9.05;4.70;;;;;;;13.07;74.88;97169.59;4966624;28;20070;-66
2023/06/17 03:21:32;;;;;;;9.35;5.15;;;;;;;13.09;74.84;97173.66;4968809;28;20078;-67
2023/06/17 03:24:00;;;;;;;9.13;5.18;;;;;;;13.10;74.40;97169.03;4990735;28;20069;-66
2023/06/17 03:26:29;;;;;;;10.90;5.15;;;;;;;13.10;74.31;97169.03;4971632;28;20051;-66
2023/06/17 03:28:56;;;;;;;7.60;5.18;;;;;;;13.03;74.83;97166.59;4977111;28;20038;-67
2023/06/17 03:31:22;;;;;;;7.35;4.80;;;;;;;12.98;75.03;97178.28;4976940;28;20058;-67
2023/06/17 03:33:52;;;;;;;8.60;4.93;;;;;;;12.99;74.68;97168.25;4973776;28;20666;-66
2023/06/17 03:36:24;;;;;;;7.95;5.57;;;;;;;12.94;74.87;97174.47;4976554;28;20042;-67
2023/06/17 03:38:52;;;;;;;8.00;5.35;;;;;;;12.87;75.57;97176.69;4970049;28;20057;-67
2023/06/17 03:41:19;;;;;;;7.72;5.93;;;;;;;12.94;75.24;97177.19;4983307;28;20070;-67
2023/06/17 03:43:45;;;;;;;12.15;5.22;;;;;;;13.01;74.85;97171.47;4988626;28;20117;-67
2023/06/17 03:46:12;;;;;;;9.88;4.85;;;;;;;13.04;74.82;97176.38;4990870;28;20042;-67
2023/06/17 03:48:39;;;;;;;8.50;4.88;;;;;;;12.95;74.75;97176.13;4972187;28;20042;-66
2023/06/17 03:51:06;;;;;;;8.20;4.93;;;;;;;12.94;75.24;97176.41;4992735;28;20084;-67
2023/06/17 03:53:33;;;;;;;9.25;4.85;;;;;;;12.75;76.20;97176.91;4990838;28;20065;-66
2023/06/17 03:56:00;;;;;;;8.15;5.28;;;;;;;12.73;76.40;97177.22;4975361;28;20406;-67
2023/06/17 03:58:28;;;;;;;7.82;5.60;;;;;;;12.74;76.75;97181.56;4971696;28;20100;-66
2023/06/17 04:00:56;;;;;;;8.10;5.00;;;;;;;12.81;76.10;97178.56;4975301;28;20584;-66
2023/06/17 04:03:24;;;;;;;9.18;5.05;;;;;;;12.81;76.49;97178.56;4975284;28;20736;-67
2023/06/17 04:05:52;;;;;;;8.48;5.35;;;;;;;12.67;77.33;97180.19;4993402;28;20043;-66
2023/06/17 04:08:19;;;;;;;8.80;4.95;;;;;;;12.56;78.29;97184.78;4972967;28;20053;-66
2023/06/17 04:10:49;;;;;;;7.95;5.25;;;;;;;12.48;78.61;97183.41;4989303;28;20117;-66
2023/06/17 04:13:16;;;;;;;12.07;5.90;;;;;;;12.30;79.72;97176.59;4990579;28;20073;-67
2023/06/17 04:15:45;;;;;;;9.07;5.47;;;;;;;12.19;80.30;97178.47;4974610;28;20061;-67
2023/06/17 04:18:11;;;;;;;8.70;5.13;;;;;;;12.19;80.43;97183.88;4966441;28;20038;-67
2023/06/17 04:20:38;;;;;;;9.35;5.80;;;;;;;12.24;80.31;97186.66;4971075;28;20050;-67
2023/06/17 04:23:05;;;;;;;10.80;5.60;;;;;;;12.30;80.23;97187.44;4973065;28;20469;-67
2023/06/17 04:25:36;;;;;;;8.23;5.63;;;;;;;12.26;80.59;97181.75;4972325;28;20082;-67
2023/06/17 04:28:07;;;;;;;7.22;5.00;;;;;;;12.34;80.04;97185.81;4989368;28;20157;-66
2023/06/17 04:30:35;;;;;;;8.70;6.00;;;;;;;12.32;80.32;97185.28;4977617;28;20517;-67
2023/06/17 04:33:02;;;;;;;9.05;5.60;;;;;;;12.47;79.97;97184.50;4974331;28;20045;-66
2023/06/17 04:35:29;;;;;;;8.02;5.55;;;;;;;12.44;80.29;97185.88;4975003;28;20038;-67
2023/06/17 04:37:58;;;;;;;8.52;5.60;;;;;;;12.60;79.88;97181.25;4996515;28;20036;-66
2023/06/17 04:40:25;;;;;;;8.85;5.38;;;;;;;12.77;79.25;97184.81;4977007;28;20042;-67
2023/06/17 04:42:52;;;;;;;9.32;5.72;;;;;;;12.76;79.22;97175.84;4979078;28;20599;-67
2023/06/17 04:45:20;;;;;;;10.57;5.30;;;;;;;12.75;78.87;97176.91;4976962;28;20552;-67
2023/06/17 04:47:52;;;;;;;11.20;5.43;;;;;;;12.72;79.14;97177.47;4979511;28;20048;-66
2023/06/17 04:50:19;;;;;;;8.07;5.07;;;;;;;12.79;78.82;97178.00;4976740;28;20046;-67
2023/06/17 04:52:53;;;;;;;7.68;5.22;;;;;;;12.88;78.52;97184.56;4978014;28;20050;-66
2023/06/17 04:55:22;;;;;;;7.55;5.45;;;;;;;12.93;78.54;97174.78;4969741;28;20053;-67
2023/06/17 04:57:49;;;;;;;7.53;5.18;;;;;;;13.00;78.50;97183.44;4970134;28;20042;-66
2023/06/17 05:00:30;;;;;;;10.77;5.43;;;;;;;13.13;78.33;97179.38;4967315;28;20042;-66
2023/06/17 05:02:57;;;;;;;9.25;5.60;;;;;;;13.16;77.48;97183.44;4971656;28;20070;-67
2023/06/17 05:05:24;;;;;;;7.95;5.50;;;;;;;13.21;77.77;97186.16;4966348;28;20413;-67
2023/06/17 05:07:51;;;;;;;8.07;5.60;;;;;;;13.27;77.63;97187.78;4967828;28;20078;-67
2023/06/17 05:10:18;;;;;;;10.30;6.07;;;;;;;13.44;77.76;97192.09;4962738;28;20422;-67
2023/06/17 05:12:46;;;;;;;8.68;5.40;;;;;;;13.55;77.26;97191.03;4970294;28;20047;-66
2023/06/17 05:15:13;;;;;;;7.82;4.90;;;;;;;13.64;77.21;97186.63;4964331;28;20113;-67
2023/06/17 05:17:40;;;;;;;8.10;5.53;;;;;;;13.68;76.71;97192.38;4968796;28;20116;-66
2023/06/17 05:20:10;;;;;;;7.88;5.10;;;;;;;13.76;76.25;97180.09;4970083;28;20103;-67
2023/06/17 05:22:38;;;;;;;8.77;5.20;;;;;;;13.85;75.88;97189.28;4983831;28;20092;-67
2023/06/17 05:25:06;;;;;;;7.25;5.00;;;;;;;13.97;75.60;97186.25;4970755;28;20499;-67
2023/06/17 05:27:33;;;;;;;8.98;5.32;;;;;;;14.04;75.10;97188.66;4967470;28;20058;-67
2023/06/17 05:30:00;;;;;;;7.70;5.28;;;;;;;14.20;74.93;97189.44;4978993;28;20579;-67
2023/06/17 05:32:27;;;;;;;9.65;4.97;;;;;;;14.35;74.42;97184.97;4990216;28;20064;-67
2023/06/17 05:34:53;;;;;;;8.45;5.78;;;;;;;14.47;74.22;97188.19;4988214;28;20054;-68
2023/06/17 05:37:20;;;;;;;6.75;5.10;;;;;;;14.50;74.42;97193.06;4989764;28;20052;-66
2023/06/17 05:39:47;;;;;;;7.60;5.45;;;;;;;14.59;74.68;97190.53;4990315;28;20037;-66
2023/06/17 05:42:14;;;;;;;7.70;5.15;;;;;;;14.69;73.44;97193.22;4990010;28;20498;-66
2023/06/17 05:44:42;;;;;;;8.63;5.53;;;;;;;14.86;73.25;97197.50;4990391;28;20088;-67
2023/06/17 05:47:09;;;;;;;6.63;4.82;;;;;;;15.03;72.50;97198.97;5007617;28;20041;-67
2023/06/17 05:49:36;;;;;;;7.78;5.30;;;;;;;15.27;72.13;97200.97;5003856;28;20646;-66
2023/06/17 05:52:03;;;;;;;8.48;4.78;;;;;;;15.50;72.36;97198.56;5003013;28;20140;-66
2023/06/17 05:54:30;;;;;;;8.45;4.85;;;;;;;15.74;71.73;97201.31;4990474;28;20046;-67
2023/06/17 05:56:57;;;;;;;7.05;4.53;;;;;;;15.95;70.56;97206.56;4988876;28;20041;-67
2023/06/17 05:59:26;;;;;;;11.35;4.90;;;;;;;16.14;69.39;97198.41;5008054;28;20069;-67
2023/06/17 06:01:53;;;;;;;7.50;4.68;;;;;;;16.33;66.88;97200.38;4989437;28;20060;-67
2023/06/17 06:04:20;;;;;;;7.18;4.70;;;;;;;16.54;66.07;97200.88;4986974;28;20068;-66
2023/06/17 06:06:46;;;;;;;7.05;5.05;;;;;;;16.72;66.03;97207.47;5007732;28;20041;-66
2023/06/17 06:09:13;;;;;;;7.30;4.45;;;;;;;16.96;65.53;97203.81;4989917;28;20034;-66
2023/06/17 06:11:40;;;;;;;8.65;4.50;;;;;;;17.22;63.78;97203.44;4986314;28;20046;-66
2023/06/17 06:14:07;;;;;;;8.57;4.25;;;;;;;17.42;63.45;97204.16;4989614;28;20037;-66
2023/06/17 06:16:35;;;;;;;7.32;4.68;;;;;;;17.61;63.47;97204.09;5007770;28;20029;-67
2023/06/17 06:19:01;;;;;;;6.70;4.28;;;;;;;17.80;62.06;97197.75;5006924;28;20041;-66
2023/06/17 06:21:28;;;;;;;7.82;4.05;;;;;;;17.95;60.96;97204.84;4989475;28;20124;-66
2023/06/17 06:23:55;;;;;;;9.23;4.07;;;;;;;18.20;61.34;97200.78;4986652;28;20055;-66
2023/06/17 06:26:26;;;;;;;7.13;4.30;;;;;;;18.42;59.07;97199.22;4973843;28;20128;-67
2023/06/17 06:28:53;;;;;;;6.75;4.20;;;;;;;18.70;56.45;97195.59;4982961;28;20108;-66
2023/06/17 06:31:20;;;;;;;11.52;4.30;;;;;;;19.02;55.84;97206.66;4983734;28;20044;-66
2023/06/17 06:33:48;;;;;;;7.35;4.82;;;;;;;19.20;53.90;97210.38;4982954;28;20050;-66
2023/06/17 06:36:14;;;;;;;7.40;4.10;;;;;;;19.34;52.94;97208.34;4977300;28;20125;-66
2023/06/17 06:38:42;;;;;;;6.35;4.30;;;;;;;19.47;53.01;97205.84;4986713;28;20034;-66
2023/06/17 06:41:09;;;;;;;9.25;3.55;;;;;;;19.53;51.92;97212.00;4979889;28;20046;-66
2023/06/17 06:43:41;;;;;;;5.43;3.83;;;;;;;19.58;51.11;97212.69;4999286;28;20045;-66
2023/06/17 06:46:13;;;;;;;7.88;4.03;;;;;;;19.63;51.92;97215.31;4983301;28;20498;-66
2023/06/17 06:48:41;;;;;;;6.28;3.60;;;;;;;19.69;52.12;97212.41;5005629;28;20040;-66
2023/06/17 06:51:09;;;;;;;7.32;4.40;;;;;;;19.66;51.84;97216.59;4988451;28;20653;-66
2023/06/17 06:53:35;;;;;;;8.32;4.30;;;;;;;19.58;52.02;97212.69;5003234;28;20069;-66
2023/06/17 06:56:02;;;;;;;7.55;4.50;;;;;;;19.56;52.03;97208.63;4986181;28;20045;-66
2023/06/17 06:58:35;;;;;;;6.32;3.70;;;;;;;19.61;51.84;97219.50;4973293;28;20046;-67
2023/06/17 07:01:01;;;;;;;7.03;4.20;;;;;;;19.78;50.28;97217.97;4985699;28;20058;-66
2023/06/17 07:03:28;;;;;;;8.43;4.05;;;;;;;20.02;49.37;97215.63;4988460;28;20038;-66
2023/06/17 07:05:54;;;;;;;6.55;3.72;;;;;;;20.22;49.46;97227.19;5004075;28;20046;-66
2023/06/17 07:08:21;;;;;;;6.95;4.18;;;;;;;20.35;48.59;97214.41;4988412;28;20116;-66
2023/06/17 07:10:48;;;;;;;12.15;9.90;;;;;;;20.48;48.37;97218.19;4988232;28;20048;-66
2023/06/17 07:13:17;;;;;;;7.55;6.18;;;;;;;20.54;46.65;97218.84;4987719;28;20041;-66
2023/06/17 07:15:45;;;;;;;9.03;5.83;;;;;;;20.57;46.91;97209.94;5008757;28;20116;-67
2023/06/17 07:18:12;;;;;;;6.05;4.55;;;;;;;20.63;46.67;97218.84;4998020;28;20042;-67
2023/06/17 07:20:41;;;;;;;7.95;4.90;;;;;;;20.77;45.34;97225.00;4988446;28;20041;-66
2023/06/17 07:23:09;;;;;;;7.88;4.65;;;;;;;20.85;43.31;97228.06;4988036;28;20049;-66
2023/06/17 07:25:39;;;;;;;9.07;5.07;;;;;;;20.89;43.40;97220.81;4980486;28;20045;-66
2023/06/17 07:28:07;;;;;;;12.98;4.20;;;;;;;21.07;42.88;97223.59;4986041;28;20073;-66
2023/06/17 07:30:34;;;;;;;6.03;3.38;;;;;;;21.22;41.90;97230.53;4988523;28;20156;-66
2023/06/17 07:33:01;;;;;;;5.05;3.60;;;;;;;21.34;42.21;97225.16;5004661;28;20497;-66
2023/06/17 07:35:28;;;;;;;7.53;3.55;;;;;;;21.49;41.20;97225.78;4988004;28;20042;-66
2023/06/17 07:37:55;;;;;;;6.00;3.17;;;;;;;21.47;40.90;97226.09;4987523;28;20133;-66
2023/06/17 07:40:22;;;;;;;6.40;3.65;;;;;;;21.54;39.95;97220.09;4987369;28;20041;-66
2023/06/17 07:42:49;;;;;;;5.80;3.53;;;;;;;21.66;40.65;97220.22;5005203;28;20046;-67
2023/06/17 07:45:16;;;;;;;8.38;3.70;;;;;;;21.74;40.42;97217.81;5005169;28;20054;-66
2023/06/17 07:47:42;;;;;;;7.32;3.63;;;;;;;21.79;40.52;97225.88;5003076;28;20428;-65
2023/06/17 07:50:09;;;;;;;6.60;3.50;;;;;;;21.79;39.22;97221.19;5004379;28;20030;-65
2023/06/17 07:52:36;;;;;;;8.10;3.83;;;;;;;21.80;39.89;97219.22;5005564;28;20053;-66
2023/06/17 07:55:04;;;;;;;6.30;3.85;;;;;;;21.93;39.31;97218.19;5004717;28;20052;-66
2023/06/17 07:57:33;;;;;;;7.60;3.30;;;;;;;22.03;39.81;97221.72;5005180;28;20041;-66
2023/06/17 08:00:00;;;;;;;7.32;3.65;;;;;;;22.12;39.83;97222.50;5004654;28;20034;-66
2023/06/17 08:02:27;;;;;;;5.90;3.40;;;;;;;22.19;39.48;97222.78;5005096;28;20041;-65
2023/06/17 08:04:54;;;;;;;6.07;3.00;;;;;;;22.20;40.33;97223.59;4998996;28;20041;-66
2023/06/17 08:07:21;;;;;;;7.85;3.70;;;;;;;22.26;39.35;97218.69;5005298;28;20072;-66
2023/06/17 08:09:47;;;;;;;7.07;3.72;;;;;;;22.37;38.43;97217.16;5005218;28;20049;-66
2023/06/17 08:12:14;;;;;;;5.97;3.55;;;;;;;22.46;39.49;97214.34;5004451;28;20505;-66
2023/06/17 08:14:41;;;;;;;7.82;4.53;;;;;;;22.43;41.00;97213.06;5005352;28;20046;-66
2023/06/17 08:17:07;;;;;;;6.68;3.70;;;;;;;22.46;42.24;97214.34;5005000;28;20226;-66
2023/06/17 08:19:35;;;;;;;6.97;3.90;;;;;;;22.56;43.22;97210.44;5005564;28;20042;-66
2023/06/17 08:22:01;;;;;;;7.97;4.07;;;;;;;22.68;43.84;97206.94;4999681;28;20133;-66
2023/06/17 08:24:28;;;;;;;6.90;3.90;;;;;;;22.84;43.22;97209.88;5000277;28;20038;-66
2023/06/17 08:26:55;;;;;;;7.55;3.80;;;;;;;22.93;41.58;97201.53;5004046;28;20092;-66
2023/06/17 08:29:22;;;;;;;7.25;4.50;;;;;;;22.87;41.28;97206.44;5005451;28;20126;-66
2023/06/17 08:31:51;;;;;;;7.03;3.55;;;;;;;22.82;42.02;97203.91;5003806;28;20116;-66
2023/06/17 08:34:17;;;;;;;6.45;3.83;;;;;;;22.97;42.42;97199.72;5004751;28;20050;-66
2023/06/17 08:36:52;;;;;;;6.45;3.80;;;;;;;22.96;40.83;97200.88;5005225;28;20118;-66
2023/06/17 08:39:19;;;;;;;10.32;4.07;;;;;;;22.88;41.13;97191.50;5004983;28;20107;-66
2023/06/17 08:41:46;;;;;;;7.80;3.83;;;;;;;23.09;40.72;97199.78;5004686;28;20731;-66
2023/06/17 08:44:13;;;;;;;8.02;4.13;;;;;;;23.08;40.09;97202.88;5004456;28;20038;-67
2023/06/17 08:46:43;;;;;;;6.28;3.45;;;;;;;23.17;40.02;97200.00;4981729;28;20161;-67
2023/06/17 08:49:12;;;;;;;10.85;4.05;;;;;;;23.18;39.49;97201.66;4999056;28;20038;-66
2023/06/17 08:51:38;;;;;;;7.72;3.78;;;;;;;23.09;38.79;97194.25;5000894;28;20045;-67
2023/06/17 08:54:06;;;;;;;6.13;3.38;;;;;;;23.09;39.08;97202.53;4994915;28;20116;-66
2023/06/17 08:56:33;;;;;;;7.80;4.00;;;;;;;23.18;38.92;97201.66;5003754;28;20092;-66
2023/06/17 08:59:01;;;;;;;5.40;3.28;;;;;;;23.37;37.81;97198.41;4973391;28;20502;-67
2023/06/17 09:01:27;;;;;;;6.82;3.88;;;;;;;23.47;37.37;97206.25;5001984;28;20049;-66
2023/06/17 09:03:54;;;;;;;5.70;3.90;;;;;;;23.57;35.98;97206.94;4994650;28;20069;-67
2023/06/17 09:06:24;;;;;;;5.13;3.20;;;;;;;23.61;35.24;97208.69;5000991;28;20060;-66
2023/06/17 09:08:52;;;;;;;5.80;3.47;;;;;;;23.68;35.75;97202.59;5002284;28;20049;-67
2023/06/17 09:11:24;;;;;;;7.65;3.80;;;;;;;23.74;35.04;97214.25;4995889;28;20050;-67
2023/06/17 09:13:52;;;;;;;5.78;4.00;;;;;;;23.81;35.08;97203.41;5002744;28;20417;-67
2023/06/17 09:16:30;;;;;;;5.93;3.40;;;;;;;23.55;35.70;97201.75;5004863;28;20048;-68
2023/06/17 09:19:03;;;;;;;8.25;3.80;;;;;;;23.41;35.71;97199.31;4989564;28;20050;-67
2023/06/17 09:21:30;;;;;;;4.80;3.28;;;;;;;23.61;35.79;97196.81;4997942;28;20094;-66
2023/06/17 09:24:03;;;;;;;5.40;3.83;;;;;;;23.60;34.81;97195.22;4997711;28;20100;-67
2023/06/17 09:26:32;;;;;;;7.28;3.47;;;;;;;23.67;35.32;97198.22;4990733;28;20046;-66
2023/06/17 09:29:04;;;;;;;5.72;3.75;;;;;;;23.73;34.48;97205.13;5000722;28;20042;-68
2023/06/17 09:31:45;;;;;;;7.93;3.80;;;;;;;23.59;32.14;97205.44;4994403;28;20053;-67
2023/06/17 09:34:13;;;;;;;7.30;4.10;;;;;;;23.56;33.53;97200.63;4999413;28;20445;-66
2023/06/17 09:36:40;;;;;;;7.28;4.05;;;;;;;23.29;34.61;97189.00;5002149;28;20437;-67
2023/06/17 09:39:09;;;;;;;7.15;3.80;;;;;;;23.36;34.44;97189.28;5001921;28;20556;-67
2023/06/17 09:41:37;;;;;;;7.65;3.40;;;;;;;23.40;33.50;97189.41;4999073;28;20054;-66
2023/06/17 09:44:03;;;;;;;5.65;3.38;;;;;;;23.54;34.42;97182.78;5001124;28;20065;-67
2023/06/17 09:46:37;;;;;;;7.70;3.67;;;;;;;23.49;33.36;97194.84;5003875;28;20042;-66
2023/06/17 09:49:09;;;;;;;20.30;5.22;;;;;;;23.66;34.32;97187.50;4998891;28;20034;-67
2023/06/17 09:51:37;;;;;;;5.88;3.90;;;;;;;23.61;33.20;97194.88;5002338;28;20076;-66
2023/06/17 09:54:09;;;;;;;6.03;3.40;;;;;;;23.76;33.34;97190.63;4981442;28;20053;-66
2023/06/17 09:56:37;;;;;;;7.03;3.60;;;;;;;23.80;32.03;97192.72;5002305;28;20046;-66
2023/06/17 09:59:07;;;;;;;7.45;3.85;;;;;;;23.74;32.36;97179.09;4993286;28;20043;-66
2023/06/17 10:01:38;;;;;;;4.90;3.45;;;;;;;23.89;33.97;97185.91;5001955;28;20044;-66
2023/06/17 10:04:07;;;;;;;5.50;3.33;;;;;;;23.73;31.83;97187.75;4996491;28;20034;-66
2023/06/17 10:06:35;;;;;;;6.03;3.55;;;;;;;23.89;32.30;97182.34;5003494;28;20052;-66
2023/06/17 10:09:07;;;;;;;5.10;3.65;;;;;;;23.95;32.27;97178.19;4999545;28;20509;-67
2023/06/17 10:11:34;;;;;;;5.63;3.80;;;;;;;24.00;32.52;97168.88;5003997;28;20524;-66
2023/06/17 10:14:12;;;;;;;6.82;3.70;;;;;;;24.15;33.15;97165.41;4996261;28;20046;-66
2023/06/17 10:16:41;;;;;;;5.47;3.65;;;;;;;24.29;32.01;97159.53;4995113;28;20044;-67
2023/06/17 10:19:13;;;;;;;7.40;3.95;;;;;;;24.34;32.48;97168.75;5000260;28;20113;-66
2023/06/17 10:21:44;;;;;;;4.63;2.97;;;;;;;24.45;29.98;97164.34;4996080;28;20303;-67
2023/06/17 10:24:11;;;;;;;8.77;3.08;;;;;;;24.48;29.96;97171.97;4996793;28;20039;-66
2023/06/17 10:26:38;;;;;;;5.57;2.75;;;;;;;24.47;29.21;97164.00;4997805;28;20038;-66
2023/06/17 10:29:07;;;;;;;7.80;3.03;;;;;;;24.42;29.76;97163.09;4996920;28;20042;-66
2023/06/17 10:31:39;;;;;;;5.72;3.05;;;;;;;24.50;29.86;97175.16;4994255;28;20274;-66
2023/06/17 10:34:08;;;;;;;5.53;3.25;;;;;;;24.33;29.71;97156.88;4997106;28;20121;-66
2023/06/17 10:36:36;;;;;;;5.18;2.95;;;;;;;24.49;30.84;97158.91;4997570;28;20560;-66
2023/06/17 10:39:11;;;;;;;5.80;3.35;;;;;;;24.53;29.58;97163.41;5004484;28;20049;-66
2023/06/17 10:41:40;;;;;;;4.35;2.83;;;;;;;24.42;29.66;97152.03;4999145;28;20037;-66
2023/06/17 10:44:35;;;;;;;5.60;3.17;;;;;;;24.31;29.63;97161.94;4997716;28;20053;-66
2023/06/17 10:47:14;;;;;;;4.78;3.20;;;;;;;24.15;29.89;97153.56;5003339;28;20053;-66
2023/06/17 10:49:42;;;;;;;9.10;3.30;;;;;;;24.40;31.07;97151.56;5000341;28;20038;-66
2023/06/17 10:52:12;;;;;;;6.55;3.70;;;;;;;24.53;30.25;97146.81;4999504;28;20049;-67
2023/06/17 10:54:55;;;;;;;5.45;3.38;;;;;;;24.53;30.80;97151.53;5004873;28;20030;-66
2023/06/17 10:57:35;;;;;;;5.00;3.42;;;;;;;24.85;31.61;97156.41;5005142;28;20044;-66
2023/06/17 11:00:11;;;;;;;5.60;3.55;;;;;;;25.07;29.63;97153.06;5003538;28;20040;-67
2023/06/17 11:02:39;;;;;;;6.40;3.22;;;;;;;25.02;29.54;97142.25;4996388;28;20057;-66
2023/06/17 11:05:07;;;;;;;5.93;3.33;;;;;;;25.05;30.43;97140.75;5000249;28;20533;-66
2023/06/17 11:07:34;;;;;;;6.13;3.58;;;;;;;25.05;29.91;97143.50;4999474;28;20042;-66
2023/06/17 11:10:02;;;;;;;4.70;3.20;;;;;;;25.03;30.74;97154.94;4980080;28;20058;-66
2023/06/17 11:12:29;;;;;;;6.00;3.17;;;;;;;24.89;30.09;97149.84;4992711;28;20582;-66
2023/06/17 11:14:59;;;;;;;7.38;3.92;;;;;;;24.91;30.85;97164.13;4994177;28;20058;-67
2023/06/17 11:17:26;;;;;;;6.90;3.58;;;;;;;24.87;30.63;97148.56;5002764;28;20041;-66
2023/06/17 11:19:53;;;;;;;4.60;2.88;;;;;;;24.96;30.21;97146.44;4996708;28;20723;-66
2023/06/17 11:22:19;;;;;;;5.43;3.38;;;;;;;24.81;29.30;97146.00;4998511;28;20046;-66
2023/06/17 11:24:46;;;;;;;5.85;3.40;;;;;;;24.96;30.12;97138.16;4999145;28;20037;-66
2023/06/17 11:27:13;;;;;;;6.40;3.22;;;;;;;24.99;29.30;97136.63;4996668;28;20609;-66
2023/06/17 11:29:43;;;;;;;4.97;3.10;;;;;;;25.28;28.36;97143.72;5000603;28;20061;-66
2023/06/17 11:32:10;;;;;;;4.43;2.88;;;;;;;25.36;28.04;97143.94;4997193;28;20125;-66
2023/06/17 11:34:37;;;;;;;4.85;2.53;;;;;;;25.54;26.75;97139.63;5005294;28;20041;-67
2023/06/17 11:37:06;;;;;;;5.40;3.30;;;;;;;25.63;26.17;97135.91;5001823;28;20536;-67
2023/06/17 11:39:35;;;;;;;6.47;2.70;;;;;;;25.64;26.78;97132.78;4999001;28;20117;-67
2023/06/17 11:42:05;;;;;;;4.32;2.92;;;;;;;25.56;26.32;97137.38;5000252;28;20545;-66